Time;durP1;ratioP1;P1;durP2;ratioP2;P2;SDS_P1;SDS_P2;PMS_P1;PMS_P2;Temp;Humidity;BMP_temperature;BMP_pressure;BME280_temperature;BME280_humidity;BME280_pressure;Samples;Min_cycle;Max_cycle;Signal;HPM_P1;HPM_P2
2021/12/07 15:07:41;;;;;;;26.25;15.30;;;;;;;-145.42;40.43;46210.56;5017738;28;20415;-41
2021/12/07 15:10:17;;;;;;;21.50;13.75;;;;;;;-145.42;41.34;46233.78;5017905;28;20041;-46
2021/12/07 15:12:43;;;;;;;;;;;;;;;-145.42;42.01;46197.03;5015204;28;20046;-49
2021/12/07 15:15:11;;;;;;;21.25;14.45;;;;;;;-145.42;42.23;46202.84;5017288;28;19937;-47
2021/12/07 15:17:37;;;;;;;25.10;14.13;;;;;;;-145.42;42.37;46226.03;5012864;28;20053;-40
2021/12/07 15:20:09;;;;;;;22.88;13.77;;;;;;;-145.42;42.37;46191.25;5016020;28;20041;-45
2021/12/07 15:22:35;;;;;;;22.35;13.43;;;;;;;-145.42;42.46;46195.09;5035680;28;20094;-40
2021/12/07 15:25:02;;;;;;;22.95;13.30;;;;;;;-145.42;42.49;46189.31;5038065;28;20499;-47
2021/12/07 15:27:29;;;;;;;22.30;13.90;;;;;;;-145.42;42.49;46226.03;5037341;28;20519;-43
2021/12/07 15:29:56;;;;;;;24.67;12.57;;;;;;;-145.42;42.52;46210.56;5034532;28;20152;-49
2021/12/07 15:32:22;;;;;;;21.02;14.43;;;;;;;-145.42;42.55;46214.44;5035471;28;20091;-41
2021/12/07 15:34:50;;;;;;;23.25;13.48;;;;;;;-145.42;42.39;46210.56;5037311;28;20037;-41
2021/12/07 15:37:24;;;;;;;22.58;13.07;;;;;;;-145.42;42.48;46226.03;5037866;28;20029;-37
2021/12/07 15:39:57;;;;;;;24.23;12.45;;;;;;;-145.42;42.56;46251.19;5036194;28;20136;-38
2021/12/07 15:42:28;;;;;;;20.35;13.07;;;;;;;-145.42;42.71;46241.50;5032321;28;20045;-38
2021/12/07 15:45:03;;;;;;;19.90;14.10;;;;;;;-145.42;42.95;46198.97;5035846;28;20077;-39
2021/12/07 15:47:35;;;;;;;23.42;12.68;;;;;;;-145.42;42.90;46249.25;5034745;28;20111;-38
2021/12/07 15:50:10;;;;;;;19.65;11.75;;;;;;;-145.42;42.93;46208.66;5032601;28;20072;-39
2021/12/07 15:52:41;;;;;;;19.75;11.50;;;;;;;-145.42;42.92;46171.91;5036051;28;20120;-39
2021/12/07 15:55:12;;;;;;;19.92;12.52;;;;;;;-145.42;42.97;46208.66;5035904;28;20811;-39
2021/12/07 15:57:42;;;;;;;19.63;12.10;;;;;;;-145.42;42.94;46226.03;5035168;28;20132;-41
2021/12/07 16:00:09;;;;;;;24.17;12.27;;;;;;;-145.42;42.97;46202.84;5037487;28;20052;-43
2021/12/07 16:02:36;;;;;;;20.30;11.63;;;;;;;-145.42;43.27;46214.44;5035912;28;20148;-38
2021/12/07 16:05:10;;;;;;;22.27;12.40;;;;;;;-145.42;43.31;46216.38;5036037;28;20043;-39
2021/12/07 16:07:47;;;;;;;18.38;11.57;;;;;;;-145.42;43.55;46235.72;5031538;28;20121;-41
2021/12/07 16:10:22;;;;;;;19.05;11.35;;;;;;;-145.42;43.56;46229.91;5037109;28;20132;-38
2021/12/07 16:13:09;;;;;;;23.57;12.60;;;;;;;-145.42;43.80;46171.91;5032907;28;20601;-41
2021/12/07 16:15:42;;;;;;;20.02;11.20;;;;;;;-145.42;43.90;46233.78;5034331;28;20268;-39
2021/12/07 16:18:10;;;;;;;19.38;12.73;;;;;;;-145.42;43.86;46197.03;5026226;28;20095;-40
2021/12/07 16:20:37;;;;;;;17.40;11.32;;;;;;;-145.42;43.82;46206.72;5023714;28;20037;-41
2021/12/07 16:23:05;;;;;;;18.25;10.80;;;;;;;-145.42;43.83;46191.25;5022793;28;20037;-40
2021/12/07 16:25:31;;;;;;;17.40;11.80;;;;;;;-145.42;43.85;46162.25;5023525;28;20119;-40
2021/12/07 16:27:57;;;;;;;20.35;11.30;;;;;;;-145.42;43.93;46200.91;5023862;28;20057;-41
2021/12/07 16:30:23;;;;;;;17.60;11.15;;;;;;;-145.42;43.90;46198.97;5020384;28;20615;-40
2021/12/07 16:32:48;;;;;;;18.63;11.32;;;;;;;-145.42;43.99;46181.56;5022431;28;20161;-41
2021/12/07 16:35:15;;;;;;;18.92;10.80;;;;;;;-145.42;44.02;46216.38;5018774;28;20044;-38
2021/12/07 16:37:42;;;;;;;15.57;10.20;;;;;;;-145.42;43.99;46214.44;5019366;28;20053;-36
2021/12/07 16:40:13;;;;;;;19.40;10.98;;;;;;;-145.42;44.11;46181.56;5021530;28;20499;-38
2021/12/07 16:42:39;;;;;;;17.95;10.95;;;;;;;-145.42;44.15;46220.25;5020578;28;20045;-40
2021/12/07 16:45:07;;;;;;;14.60;9.90;;;;;;;-145.42;43.93;46204.78;5024853;28;20064;-38
2021/12/07 16:47:32;;;;;;;17.80;10.45;;;;;;;-145.42;43.86;46202.84;5021262;28;20125;-40
2021/12/07 16:49:58;;;;;;;15.85;10.15;;;;;;;-145.42;43.88;46206.72;5021081;28;20072;-41
2021/12/07 16:52:25;;;;;;;17.10;10.95;;;;;;;-145.42;43.81;46214.44;5021927;28;20133;-42
2021/12/07 16:54:50;;;;;;;17.48;10.60;;;;;;;-145.42;43.73;46231.84;5019644;28;20511;-43
2021/12/07 16:57:16;;;;;;;21.63;10.30;;;;;;;-145.42;43.96;46210.56;5022169;28;20043;-39
2021/12/07 16:59:43;;;;;;;17.10;10.13;;;;;;;-145.42;43.91;46237.66;5021389;28;20049;-38
2021/12/07 17:02:08;;;;;;;17.45;10.23;;;;;;;-145.42;44.08;46210.56;5022238;28;20037;-41
2021/12/07 17:04:34;;;;;;;15.43;10.30;;;;;;;-145.42;44.08;46187.38;5020918;28;20124;-40
2021/12/07 17:07:03;;;;;;;15.57;10.60;;;;;;;-145.42;44.04;46198.97;5020690;28;20427;-40
2021/12/07 17:09:29;;;;;;;14.85;9.48;;;;;;;-145.42;44.22;46206.72;5019832;28;20048;-39
2021/12/07 17:11:55;;;;;;;17.70;10.18;;;;;;;-145.42;44.30;46216.38;5020239;28;20065;-38
2021/12/07 17:14:22;;;;;;;18.02;11.15;;;;;;;-145.42;44.41;46191.25;5020609;28;20033;-39
2021/12/07 17:16:49;;;;;;;16.48;10.55;;;;;;;-145.42;44.52;46216.38;5020726;28;20045;-39
2021/12/07 17:19:15;;;;;;;15.50;9.88;;;;;;;-145.42;44.69;46237.66;5020111;28;20041;-39
2021/12/07 17:21:41;;;;;;;18.73;10.88;;;;;;;-145.42;44.71;46243.44;5020602;28;20029;-40
2021/12/07 17:24:07;;;;;;;16.67;10.48;;;;;;;-145.42;44.77;46206.72;5016996;28;20500;-39
2021/12/07 17:26:32;;;;;;;16.27;9.65;;;;;;;-145.42;44.82;46245.38;5019316;28;20144;-42
2021/12/07 17:28:58;;;;;;;15.57;10.13;;;;;;;-145.42;44.93;46214.44;5021470;28;20044;-39
2021/12/07 17:31:24;;;;;;;14.63;9.55;;;;;;;-145.42;45.08;46187.38;5017872;28;20147;-41
2021/12/07 17:33:50;;;;;;;16.58;9.82;;;;;;;-145.42;45.04;46191.25;5020690;28;20080;-39
2021/12/07 17:36:17;;;;;;;16.83;9.13;;;;;;;-145.42;45.14;46226.03;5019814;28;20038;-40
2021/12/07 17:38:45;;;;;;;14.48;10.07;;;;;;;-145.42;45.29;46227.97;5018114;28;20038;-39
2021/12/07 17:41:11;;;;;;;18.70;9.70;;;;;;;-145.42;45.31;46233.78;5022182;28;20045;-39
2021/12/07 17:43:37;;;;;;;18.35;10.38;;;;;;;-145.42;45.51;46193.19;5015912;28;20088;-39
2021/12/07 17:46:03;;;;;;;15.48;9.95;;;;;;;-145.42;45.67;46220.25;5022205;28;20112;-49
2021/12/07 17:48:29;;;;;;;16.67;9.82;;;;;;;-145.42;45.66;46212.50;5018582;28;20038;-40
2021/12/07 17:50:55;;;;;;;18.45;10.15;;;;;;;-145.42;45.67;46175.78;5018652;28;20111;-39
2021/12/07 17:53:21;;;;;;;21.08;10.57;;;;;;;-145.42;46.00;46175.78;5021871;28;20113;-39
2021/12/07 17:55:51;;;;;;;19.38;10.15;;;;;;;-145.42;46.16;46235.72;5017162;28;20122;-38
2021/12/07 17:58:18;;;;;;;15.90;9.73;;;;;;;-145.42;46.71;46210.56;5021642;28;20132;-39
2021/12/07 18:00:46;;;;;;;21.88;10.02;;;;;;;-145.42;47.10;46227.97;5018677;28;20235;-40
2021/12/07 18:03:16;;;;;;;17.52;10.00;;;;;;;-145.42;47.30;46253.09;5019903;28;20026;-39
2021/12/07 18:05:42;;;;;;;15.98;10.60;;;;;;;-145.42;47.51;46256.97;5019088;28;20172;-39
2021/12/07 18:08:10;;;;;;;20.40;9.75;;;;;;;-145.42;47.65;46204.78;5015220;28;20112;-39
2021/12/07 18:10:36;;;;;;;20.70;10.82;;;;;;;-145.42;47.57;46204.78;5019734;28;20523;-40
2021/12/07 18:13:03;;;;;;;19.65;9.80;;;;;;;-145.42;47.62;46220.25;5020109;28;20037;-39
2021/12/07 18:15:31;;;;;;;22.40;10.73;;;;;;;-145.42;47.75;46218.31;5019219;28;20504;-40
2021/12/07 18:17:59;;;;;;;28.00;11.77;;;;;;;-145.42;48.01;46224.09;5021458;28;20500;-39
2021/12/07 18:20:30;;;;;;;17.80;10.20;;;;;;;-145.42;48.31;46189.31;5017698;28;20741;-40
2021/12/07 18:22:57;;;;;;;26.08;10.57;;;;;;;-145.42;48.41;46241.50;5020666;28;20063;-40
2021/12/07 18:25:24;;;;;;;18.30;10.30;;;;;;;-145.42;48.43;46214.44;5017294;28;20122;-41
2021/12/07 18:27:50;;;;;;;17.63;10.05;;;;;;;-145.42;48.40;46264.72;5020298;28;20046;-39
2021/12/07 18:30:19;;;;;;;18.88;9.90;;;;;;;-145.42;48.60;46235.72;5019835;28;20029;-39
2021/12/07 18:32:46;;;;;;;17.27;9.57;;;;;;;-145.42;48.64;46237.66;5018804;28;20482;-40
2021/12/07 18:35:14;;;;;;;23.85;10.48;;;;;;;-145.42;48.80;46210.56;5020403;28;20124;-40
2021/12/07 18:37:40;;;;;;;16.95;9.85;;;;;;;-145.42;48.84;46220.25;5018069;28;20038;-40
2021/12/07 18:40:09;;;;;;;19.80;10.38;;;;;;;-145.42;48.96;46204.78;5021472;28;20044;-40
2021/12/07 18:42:35;;;;;;;17.10;10.93;;;;;;;-145.42;49.03;46227.97;5019341;28;20140;-40
2021/12/07 18:45:05;;;;;;;17.15;10.95;;;;;;;-145.42;49.37;46241.50;5016173;28;20140;-40
2021/12/07 18:47:31;;;;;;;22.17;10.30;;;;;;;-145.42;49.30;46235.72;5019802;28;20623;-40
2021/12/07 18:49:56;;;;;;;16.88;10.00;;;;;;;-145.42;49.30;46243.44;5020512;28;20049;-40
2021/12/07 18:52:22;;;;;;;20.63;10.10;;;;;;;-145.42;49.61;46198.97;5021572;28;20472;-41
2021/12/07 18:54:48;;;;;;;16.73;10.23;;;;;;;-145.42;49.81;46204.78;5019650;28;20052;-39
2021/12/07 18:57:15;;;;;;;21.50;10.63;;;;;;;-145.42;49.84;46195.09;5016825;28;20060;-39
2021/12/07 18:59:41;;;;;;;15.70;9.52;;;;;;;-145.42;50.10;46189.31;5018694;28;20077;-39
2021/12/07 19:02:07;;;;;;;15.63;9.75;;;;;;;-145.42;50.12;46198.97;5018031;28;20400;-40
2021/12/07 19:04:33;;;;;;;16.60;10.18;;;;;;;-145.42;50.21;46220.25;5018331;28;20068;-45
2021/12/07 19:07:00;;;;;;;13.98;9.82;;;;;;;-145.42;50.38;46227.97;5017639;28;20129;-39
2021/12/07 19:09:26;;;;;;;17.90;10.02;;;;;;;-145.42;50.47;46218.31;5018641;28;20073;-39
2021/12/07 19:11:52;;;;;;;15.57;9.60;;;;;;;-145.42;50.53;46235.72;5019937;28;20160;-40
2021/12/07 19:14:18;;;;;;;21.42;9.82;;;;;;;-145.42;50.75;46220.25;5016336;28;20416;-39
2021/12/07 19:16:44;;;;;;;15.88;9.88;;;;;;;-145.42;50.69;46224.09;5017294;28;20075;-41
2021/12/07 19:19:11;;;;;;;17.48;9.70;;;;;;;-145.42;50.62;46229.91;5020065;28;20535;-40
2021/12/07 19:21:37;;;;;;;19.80;9.52;;;;;;;-145.42;50.54;46251.19;5016187;28;20053;-39
2021/12/07 19:24:04;;;;;;;13.32;9.90;;;;;;;-145.42;50.52;46191.25;5021312;28;20637;-40
2021/12/07 19:26:31;;;;;;;12.57;9.20;;;;;;;-145.42;50.44;46237.66;5015729;28;20172;-38
2021/12/07 19:28:56;;;;;;;14.13;9.90;;;;;;;-145.42;50.26;46251.19;5020093;28;20038;-39
2021/12/07 19:31:24;;;;;;;16.20;9.25;;;;;;;-145.42;50.12;46210.56;5017416;28;20029;-39
2021/12/07 19:33:51;;;;;;;17.40;10.00;;;;;;;-145.42;50.05;46193.19;5018764;28;20052;-40
2021/12/07 19:36:19;;;;;;;18.67;9.60;;;;;;;-145.42;49.96;46229.91;5019902;28;20071;-38
2021/12/07 19:38:45;;;;;;;19.95;10.27;;;;;;;-145.42;49.96;46204.78;5016293;28;20099;-39
2021/12/07 19:41:11;;;;;;;14.30;10.13;;;;;;;-145.42;49.94;46216.38;5020211;28;20120;-39
2021/12/07 19:43:37;;;;;;;17.27;9.63;;;;;;;-145.42;49.94;46212.50;5017811;28;20177;-39
2021/12/07 19:46:04;;;;;;;15.15;9.13;;;;;;;-145.42;50.03;46187.38;5020732;28;20821;-38
2021/12/07 19:48:30;;;;;;;19.95;9.90;;;;;;;-145.42;50.07;46198.97;5021519;28;20037;-38
2021/12/07 19:51:12;;;;;;;12.30;9.25;;;;;;;-145.42;50.11;46212.50;5018758;28;20045;-38
2021/12/07 19:53:43;;;;;;;18.00;10.15;;;;;;;-145.42;50.21;46204.78;5022144;28;20045;-38
2021/12/07 19:56:15;;;;;;;17.13;9.38;;;;;;;-145.42;50.20;46210.56;5024248;28;20113;-39
2021/12/07 19:58:42;;;;;;;17.42;10.68;;;;;;;-145.42;50.21;46237.66;5022842;28;20045;-38
2021/12/07 20:01:10;;;;;;;15.43;9.05;;;;;;;-145.42;50.19;46243.44;5024583;28;20128;-39
2021/12/07 20:03:36;;;;;;;17.95;9.82;;;;;;;-145.42;50.39;46212.50;5018132;28;20052;-40
2021/12/07 20:06:03;;;;;;;17.63;9.63;;;;;;;-145.42;50.39;46195.09;5023029;28;20124;-39
2021/12/07 20:08:28;;;;;;;14.20;9.75;;;;;;;-145.42;50.40;46227.97;5021634;28;20064;-39
2021/12/07 20:10:55;;;;;;;17.08;9.32;;;;;;;-145.42;50.57;46214.44;5023174;28;20042;-39
2021/12/07 20:13:21;;;;;;;15.38;9.73;;;;;;;-145.42;50.72;46210.56;5023476;28;20037;-39
2021/12/07 20:15:53;;;;;;;19.65;9.88;;;;;;;-145.42;50.91;46218.31;5023166;28;20045;-39
2021/12/07 20:18:20;;;;;;;17.13;10.00;;;;;;;-145.42;51.00;46245.38;5024612;28;20041;-40
2021/12/07 20:20:52;;;;;;;17.90;9.23;;;;;;;-145.42;51.21;46198.97;5023006;28;20583;-39
2021/12/07 20:23:22;;;;;;;17.17;9.40;;;;;;;-145.42;51.29;46260.84;5025239;28;20034;-38
2021/12/07 20:25:48;;;;;;;17.25;9.40;;;;;;;-145.42;51.39;46210.56;5023551;28;20077;-39
2021/12/07 20:28:14;;;;;;;14.45;9.63;;;;;;;-145.42;51.71;46200.91;5024358;28;20041;-40
2021/12/07 20:30:40;;;;;;;13.27;9.63;;;;;;;-145.42;51.70;46195.09;5021472;28;20120;-40
2021/12/07 20:33:06;;;;;;;18.40;10.70;;;;;;;-145.42;51.93;46220.25;5022584;28;20471;-39
2021/12/07 20:35:32;;;;;;;18.15;10.20;;;;;;;-145.42;52.14;46210.56;5021233;28;20052;-39
2021/12/07 20:37:58;;;;;;;21.08;12.60;;;;;;;-145.42;52.24;46214.44;5020961;28;20033;-38
2021/12/07 20:40:23;;;;;;;944.30;569.60;;;;;;;-145.42;52.10;46218.31;5023810;28;20069;-39
2021/12/07 20:42:52;;;;;;;552.22;315.58;;;;;;;-145.42;51.99;46237.66;5021660;28;20038;-39
2021/12/07 20:45:18;;;;;;;511.55;294.17;;;;;;;-145.42;51.75;46245.38;5018480;28;20096;-39
2021/12/07 20:47:43;;;;;;;408.83;237.43;;;;;;;-145.42;51.66;46224.09;5022077;28;20046;-40
2021/12/07 20:50:10;;;;;;;362.95;202.70;;;;;;;-145.42;51.61;46227.97;5024274;28;20033;-39
2021/12/07 20:52:36;;;;;;;343.48;189.55;;;;;;;-145.42;51.59;46241.50;5016360;28;20397;-40
2021/12/07 20:55:04;;;;;;;306.05;168.05;;;;;;;-145.42;51.51;46243.44;5020655;28;20080;-39
2021/12/07 20:57:29;;;;;;;295.00;157.05;;;;;;;-145.42;51.38;46210.56;5015974;28;20852;-38
2021/12/07 20:59:55;;;;;;;272.48;147.15;;;;;;;-145.42;51.31;46220.25;5020555;28;20045;-38
2021/12/07 21:02:22;;;;;;;262.23;141.32;;;;;;;-145.42;51.28;46239.56;5018600;28;20116;-40
2021/12/07 21:04:48;;;;;;;246.35;135.50;;;;;;;-145.42;51.21;46224.09;5018141;28;20483;-39
2021/12/07 21:07:14;;;;;;;245.15;130.65;;;;;;;-145.42;51.10;46233.78;5021980;28;20063;-39
2021/12/07 21:09:40;;;;;;;237.77;125.82;;;;;;;-145.42;50.97;46249.25;5016473;28;20038;-38
2021/12/07 21:12:06;;;;;;;240.15;124.20;;;;;;;-145.42;50.85;46233.78;5022306;28;20224;-40
2021/12/07 21:14:32;;;;;;;229.07;122.60;;;;;;;-145.42;50.81;46229.91;5019030;28;20132;-39
2021/12/07 21:16:58;;;;;;;235.55;122.70;;;;;;;-145.42;50.76;46255.03;5020045;28;20060;-39
2021/12/07 21:19:24;;;;;;;216.48;117.40;;;;;;;-145.42;50.78;46218.31;5021171;28;20136;-40
2021/12/07 21:21:50;;;;;;;212.60;117.30;;;;;;;-145.42;50.78;46183.50;5017656;28;20033;-37
2021/12/07 21:24:16;;;;;;;220.68;115.63;;;;;;;-145.42;50.81;46245.38;5022692;28;20037;-40
2021/12/07 21:26:41;;;;;;;213.38;113.50;;;;;;;-145.42;50.75;46231.84;5018876;28;20587;-39
2021/12/07 21:29:08;;;;;;;204.77;114.45;;;;;;;-145.42;50.84;46198.97;5020541;28;20041;-37
2021/12/07 21:31:37;;;;;;;211.70;117.38;;;;;;;-145.42;50.79;46214.44;5020065;28;20103;-44
2021/12/07 21:34:04;;;;;;;209.00;112.25;;;;;;;-145.42;50.84;46204.78;5015099;28;20095;-38
2021/12/07 21:36:29;;;;;;;198.63;112.57;;;;;;;-145.42;50.83;46224.09;5021833;28;20037;-40
2021/12/07 21:38:55;;;;;;;191.95;109.72;;;;;;;-145.42;50.91;46206.72;5019502;28;20092;-40
2021/12/07 21:41:21;;;;;;;197.93;105.45;;;;;;;-145.42;50.62;46235.72;5020433;28;20048;-38
2021/12/07 21:43:47;;;;;;;189.15;107.43;;;;;;;-145.42;50.62;46224.09;5019659;28;20049;-38
2021/12/07 21:46:14;;;;;;;182.80;102.10;;;;;;;-145.42;50.80;46218.31;5018781;28;20630;-38
2021/12/07 21:48:40;;;;;;;184.23;101.82;;;;;;;-145.42;50.78;46175.78;5020636;28;20140;-39
2021/12/07 21:51:05;;;;;;;178.18;100.30;;;;;;;-145.42;50.86;46224.09;5020036;28;20109;-39
2021/12/07 21:53:32;;;;;;;181.15;100.32;;;;;;;-145.42;50.81;46224.09;5019511;28;20570;-38
2021/12/07 21:55:57;;;;;;;166.38;99.60;;;;;;;-145.42;50.94;46231.84;5020842;28;20033;-39
2021/12/07 21:58:24;;;;;;;173.18;99.60;;;;;;;-145.42;50.80;46229.91;5018815;28;20041;-39
2021/12/07 22:00:51;;;;;;;170.65;95.95;;;;;;;-145.42;50.91;46218.31;5020674;28;20145;-38
2021/12/07 22:03:17;;;;;;;159.48;93.97;;;;;;;-145.42;51.16;46229.91;5019157;28;20125;-38
2021/12/07 22:05:43;;;;;;;168.50;95.75;;;;;;;-145.42;51.09;46231.84;5017199;28;20095;-40
2021/12/07 22:08:12;;;;;;;160.30;92.00;;;;;;;-145.42;51.01;46222.19;5021611;28;20103;-37
2021/12/07 22:10:41;;;;;;;163.50;94.68;;;;;;;-145.42;51.09;46249.25;5015219;28;20046;-40
2021/12/07 22:13:07;;;;;;;161.15;92.88;;;;;;;-145.42;51.13;46208.66;5021831;28;20045;-39
2021/12/07 22:15:33;;;;;;;163.32;92.65;;;;;;;-145.42;51.11;46247.31;5016959;28;20073;-39
2021/12/07 22:17:59;;;;;;;298.85;153.80;;;;;;;-145.42;51.06;46237.66;5018742;28;20950;-39
2021/12/07 22:20:25;;;;;;;278.90;148.02;;;;;;;-145.42;51.06;46218.31;5021024;28;20045;-44
2021/12/07 22:22:51;;;;;;;262.02;135.55;;;;;;;-145.42;50.59;46195.09;5016435;28;20049;-48
